createdAt,value
2018-02-17T00:01:11.387Z,58.87
2018-02-17T00:03:39.054Z,61.50
2018-02-17T00:14:47.615Z,55.53
2018-02-17T00:17:15.198Z,91.83
2018-02-17T00:19:42.801Z,83.60
2018-02-17T00:22:10.402Z,48.07
2018-02-17T00:24:38.002Z,49.40
2018-02-17T00:27:05.610Z,85.23
2018-02-17T00:29:33.244Z,74.70
2018-02-17T00:32:03.822Z,74.27
2018-02-17T00:34:31.506Z,72.50
2018-02-17T00:36:59.090Z,102.00
2018-02-17T00:39:27.471Z,87.83
2018-02-17T00:41:55.050Z,85.43
2018-02-17T00:44:22.659Z,89.03
2018-02-17T00:46:51.048Z,71.60
2018-02-17T00:49:18.626Z,88.13
2018-02-17T00:51:46.233Z,164.07
2018-02-17T00:54:14.579Z,86.13
2018-02-17T00:56:42.188Z,75.20
2018-02-17T00:59:09.803Z,145.80
2018-02-17T01:01:37.576Z,65.53
2018-02-17T01:04:05.186Z,115.17
2018-02-17T01:06:33.534Z,100.30
2018-02-17T01:09:01.114Z,203.20
2018-02-17T01:11:28.730Z,72.20
2018-02-17T01:13:57.103Z,48.47
2018-02-17T01:16:24.687Z,55.20
2018-02-17T01:18:52.301Z,73.60
2018-02-17T01:21:19.879Z,53.80
2018-02-17T01:23:47.487Z,69.07
2018-02-17T01:26:15.097Z,67.43
2018-02-17T01:28:42.679Z,170.93
2018-02-17T01:31:10.358Z,88.10
2018-02-17T01:33:37.942Z,47.60
2018-02-17T01:36:05.550Z,129.03
2018-02-17T01:38:33.153Z,71.23
2018-02-17T01:41:01.494Z,62.47
2018-02-17T01:43:29.097Z,51.67
2018-02-17T01:45:56.689Z,65.27
2018-02-17T01:48:24.322Z,67.90
2018-02-17T01:50:51.922Z,77.50
2018-02-17T01:53:19.514Z,69.47
2018-02-17T01:55:47.130Z,81.43
2018-02-17T01:58:14.731Z,56.57
2018-02-17T02:00:42.337Z,94.00
2018-02-17T02:03:10.706Z,75.60
2018-02-17T02:05:38.284Z,60.60
2018-02-17T02:08:05.893Z,55.37
2018-02-17T02:10:33.474Z,69.63
2018-02-17T02:13:01.079Z,43.63
2018-02-17T02:15:29.447Z,42.40
2018-02-17T02:17:57.023Z,63.97
2018-02-17T02:20:24.923Z,62.07
2018-02-17T02:22:52.503Z,46.93
2018-02-17T02:25:20.105Z,55.37
2018-02-17T02:27:47.715Z,77.87
2018-02-17T02:30:15.303Z,47.40
2018-02-17T02:32:42.918Z,56.73
2018-02-17T02:35:10.499Z,67.60
2018-02-17T02:37:38.112Z,33.67
2018-02-17T02:40:05.723Z,57.83
2018-02-17T02:42:33.299Z,60.93
2018-02-17T02:45:00.903Z,50.37
2018-02-17T02:47:28.482Z,48.40
2018-02-17T02:49:56.087Z,37.83
2018-02-17T02:52:23.690Z,43.40
2018-02-17T02:54:51.278Z,45.47
2018-02-17T02:57:18.877Z,40.13
2018-02-17T02:59:47.222Z,51.17
2018-02-17T03:02:14.827Z,40.67
2018-02-17T03:04:42.438Z,43.60
2018-02-17T03:07:10.013Z,38.40
2018-02-17T03:09:37.620Z,42.80
2018-02-17T03:12:05.205Z,44.00
2018-02-17T03:14:32.805Z,48.50
2018-02-17T03:17:01.186Z,89.50
2018-02-17T03:19:28.759Z,82.90
2018-02-17T03:21:57.310Z,67.07
2018-02-17T03:24:24.905Z,91.40
2018-02-17T03:26:52.510Z,45.97
2018-02-17T03:29:20.114Z,44.00
2018-02-17T03:31:48.458Z,46.97
2018-02-17T03:34:16.067Z,55.70
2018-02-17T03:36:44.418Z,55.33
2018-02-17T03:39:12.018Z,46.77
2018-02-17T03:41:39.623Z,54.27
2018-02-17T03:44:07.206Z,51.77
2018-02-17T03:46:34.810Z,55.13
2018-02-17T03:49:03.156Z,53.97
2018-02-17T03:51:30.762Z,50.07
2018-02-17T03:53:58.366Z,54.07
2018-02-17T03:56:25.953Z,50.93
2018-02-17T03:58:54.326Z,58.43
2018-02-17T04:01:22.683Z,51.53
2018-02-17T04:03:51.054Z,57.97
2018-02-17T04:06:18.653Z,56.27
2018-02-17T04:08:46.226Z,55.17
2018-02-17T04:11:14.065Z,62.47
2018-02-17T04:13:41.638Z,53.13
2018-02-17T04:16:10.042Z,51.10
2018-02-17T04:18:38.418Z,49.10
2018-02-17T04:21:05.997Z,50.10
2018-02-17T04:23:33.598Z,53.10
2018-02-17T04:26:01.177Z,51.70
2018-02-17T04:28:28.786Z,43.00
2018-02-17T04:30:56.390Z,44.30
2018-02-17T04:33:23.961Z,48.70
2018-02-17T04:35:51.570Z,51.73
2018-02-17T04:38:19.166Z,42.90
2018-02-17T04:40:51.446Z,38.93
2018-02-17T04:43:28.955Z,43.07
2018-02-17T04:46:02.218Z,43.03
2018-02-17T04:48:30.731Z,43.60
2018-02-17T04:51:12.140Z,45.47
2018-02-17T04:53:44.649Z,43.00
2018-02-17T04:56:23.058Z,38.70
2018-02-17T04:58:56.291Z,39.90
2018-02-17T05:01:26.407Z,37.40
2018-02-17T05:03:55.514Z,39.67
2018-02-17T05:06:25.837Z,39.10
2018-02-17T05:08:59.795Z,46.17
2018-02-17T05:11:27.414Z,34.97
2018-02-17T05:14:11.772Z,41.13
2018-02-17T05:19:51.645Z,36.80
2018-02-17T05:22:35.042Z,36.43
2018-02-17T05:25:06.298Z,39.53
2018-02-17T05:27:39.137Z,34.50
2018-02-17T05:30:08.384Z,34.97
2018-02-17T05:35:44.214Z,32.83
2018-02-17T05:38:11.834Z,34.60
2018-02-17T05:43:45.226Z,37.03
2018-02-17T05:46:13.022Z,34.43
2018-02-17T05:48:42.460Z,34.60
2018-02-17T05:51:12.794Z,31.70
2018-02-17T05:53:40.373Z,34.03
2018-02-17T05:56:08.017Z,32.03
2018-02-17T05:58:35.579Z,32.60
2018-02-17T06:01:03.190Z,32.80
2018-02-17T06:03:30.798Z,36.53
2018-02-17T06:05:58.381Z,32.83
2018-02-17T06:08:25.981Z,32.40
2018-02-17T06:10:53.586Z,32.43
2018-02-17T06:13:21.194Z,32.60
2018-02-17T06:15:49.894Z,31.67
2018-02-17T06:18:18.240Z,32.33
2018-02-17T06:20:45.843Z,31.90
2018-02-17T06:23:14.950Z,29.63
2018-02-17T06:25:42.554Z,29.93
2018-02-17T06:28:10.158Z,32.90
2018-02-17T06:30:37.822Z,29.53
2018-02-17T06:33:05.426Z,30.97
2018-02-17T06:35:33.008Z,34.40
2018-02-17T06:38:00.614Z,35.20
2018-02-17T06:40:28.223Z,34.07
2018-02-17T06:42:55.943Z,29.27
2018-02-17T06:45:23.546Z,32.03
2018-02-17T06:47:51.126Z,32.67
2018-02-17T06:50:18.726Z,32.73
2018-02-17T06:52:46.330Z,30.30
2018-02-17T06:55:13.906Z,31.20
2018-02-17T06:57:41.510Z,30.90
2018-02-17T07:00:09.849Z,36.47
2018-02-17T07:02:37.458Z,30.53
2018-02-17T07:05:05.062Z,28.10
2018-02-17T07:07:32.640Z,35.90
2018-02-17T07:10:00.249Z,33.73
2018-02-17T07:12:27.822Z,32.57
2018-02-17T07:14:55.426Z,33.43
2018-02-17T07:17:23.824Z,36.73
2018-02-17T07:19:51.389Z,30.07
2018-02-17T07:22:18.993Z,33.00
2018-02-17T07:24:46.598Z,33.43
2018-02-17T07:27:14.974Z,28.67
2018-02-17T07:29:42.577Z,27.77
2018-02-17T07:32:10.150Z,31.00
2018-02-17T07:34:37.758Z,30.67
2018-02-17T07:37:06.106Z,30.60
2018-02-17T07:39:33.711Z,25.17
2018-02-17T07:42:01.320Z,24.20
2018-02-17T07:44:28.894Z,24.03
2018-02-17T07:46:56.501Z,24.47
2018-02-17T07:49:24.845Z,24.03
2018-02-17T07:51:52.445Z,22.90
2018-02-17T07:54:20.047Z,27.60
2018-02-17T07:56:47.625Z,27.57
2018-02-17T07:59:15.226Z,25.70
2018-02-17T08:01:42.799Z,24.60
2018-02-17T08:04:10.407Z,23.13
2018-02-17T08:06:38.018Z,25.70
2018-02-17T08:09:06.357Z,25.53
2018-02-17T08:11:33.958Z,25.17
2018-02-17T08:14:01.536Z,26.27
2018-02-17T08:16:29.146Z,25.67
2018-02-17T08:18:56.749Z,25.70
2018-02-17T08:21:24.542Z,25.73
2018-02-17T08:23:52.146Z,28.83
2018-02-17T08:26:20.481Z,25.97
2018-02-17T08:28:48.198Z,21.93
2018-02-17T08:31:15.850Z,29.43
2018-02-17T08:33:45.354Z,24.93
2018-02-17T08:36:13.751Z,25.57
2018-02-17T08:38:41.334Z,25.90
2018-02-17T08:41:08.947Z,24.70
2018-02-17T08:43:37.313Z,25.63
2018-02-17T08:46:04.900Z,24.77
2018-02-17T08:48:32.507Z,23.50
2018-02-17T08:51:00.854Z,24.47
2018-02-17T08:53:28.461Z,26.33
2018-02-17T08:55:56.037Z,26.27
2018-02-17T08:58:23.638Z,27.07
2018-02-17T09:00:51.247Z,26.00
2018-02-17T09:03:20.639Z,24.47
2018-02-17T09:05:51.786Z,24.80
2018-02-17T09:08:23.188Z,23.40
2018-02-17T09:10:51.198Z,25.20
2018-02-17T09:13:19.009Z,22.77
2018-02-17T09:15:47.256Z,24.93
2018-02-17T09:18:15.684Z,25.33
2018-02-17T09:20:46.699Z,24.30
2018-02-17T09:23:15.288Z,26.23
2018-02-17T09:25:42.923Z,24.50
2018-02-17T09:28:13.956Z,27.20
2018-02-17T09:30:41.888Z,24.67
2018-02-17T09:33:09.782Z,23.83
2018-02-17T09:35:38.431Z,22.87
2018-02-17T09:38:06.526Z,23.77
2018-02-17T09:40:35.713Z,25.30
2018-02-17T09:43:03.516Z,28.17
2018-02-17T09:45:52.659Z,21.43
2018-02-17T09:48:20.539Z,24.00
2018-02-17T09:50:49.302Z,21.83
2018-02-17T09:53:17.327Z,23.33
2018-02-17T09:55:46.370Z,22.23
2018-02-17T09:58:14.291Z,21.07
2018-02-17T10:00:42.904Z,23.33
2018-02-17T10:03:11.933Z,18.97
2018-02-17T10:05:39.836Z,19.97
2018-02-17T10:08:08.131Z,21.90
2018-02-17T10:10:35.703Z,21.43
2018-02-17T10:13:03.312Z,21.27
2018-02-17T10:15:30.915Z,23.13
2018-02-17T10:24:08.331Z,23.03
2018-02-17T10:26:35.911Z,20.03
2018-02-17T10:29:03.514Z,24.70
2018-02-17T10:31:31.115Z,23.43
2018-02-17T10:33:58.690Z,21.70
2018-02-17T10:36:26.294Z,25.07
2018-02-17T10:38:53.868Z,20.87
2018-02-17T10:41:21.470Z,22.37
2018-02-17T10:43:49.834Z,20.43
2018-02-17T10:46:17.406Z,21.90
2018-02-17T10:48:45.022Z,18.53
2018-02-17T10:51:12.590Z,22.20
2018-02-17T10:53:40.189Z,19.00
2018-02-17T10:56:07.787Z,20.60
2018-02-17T10:58:35.358Z,20.70
2018-02-17T11:01:02.961Z,20.27
2018-02-17T11:03:30.546Z,19.60
2018-02-17T11:09:16.547Z,18.53
2018-02-17T11:11:44.146Z,19.10
2018-02-17T11:14:11.750Z,17.40
2018-02-17T11:16:40.139Z,20.60
2018-02-17T11:19:07.743Z,19.73
2018-02-17T11:21:35.404Z,18.97
2018-02-17T11:24:03.798Z,18.03
2018-02-17T11:26:31.406Z,17.90
2018-02-17T11:28:58.994Z,17.50
2018-02-17T11:31:26.598Z,20.10
2018-02-17T11:33:54.261Z,21.57
2018-02-17T11:36:21.843Z,20.83
2018-02-17T11:38:49.445Z,18.77
2018-02-17T11:41:18.542Z,16.60
2018-02-17T11:43:46.142Z,17.83
2018-02-17T11:46:14.388Z,18.20
2018-02-17T11:48:42.782Z,17.67
2018-02-17T11:51:10.368Z,17.77
2018-02-17T11:53:38.008Z,16.70
2018-02-17T11:56:06.366Z,16.77
2018-02-17T11:58:33.946Z,18.83
2018-02-17T12:01:01.550Z,17.03
2018-02-17T12:03:29.121Z,17.87
2018-02-17T12:05:56.723Z,18.30
2018-02-17T12:08:24.303Z,18.40
2018-02-17T12:10:51.907Z,16.90
2018-02-17T12:13:20.250Z,18.57
2018-02-17T12:15:47.863Z,14.57
2018-02-17T12:18:15.458Z,17.10
2018-02-17T12:20:43.143Z,15.20
2018-02-17T12:23:11.054Z,14.60
2018-02-17T12:25:39.508Z,19.77
2018-02-17T12:28:07.232Z,18.93
2018-02-17T12:30:35.095Z,15.40
2018-02-17T12:33:03.009Z,14.73
2018-02-17T12:35:30.736Z,16.03
2018-02-17T12:37:59.167Z,15.20
2018-02-17T12:40:27.040Z,14.27
2018-02-17T12:42:54.885Z,13.50
2018-02-17T12:45:22.892Z,21.77
2018-02-17T12:47:50.565Z,19.07
2018-02-17T12:50:18.314Z,15.17
2018-02-17T12:52:46.053Z,17.67
2018-02-17T12:55:13.859Z,16.80
2018-02-17T12:57:41.577Z,15.80
2018-02-17T13:00:09.511Z,16.17
2018-02-17T13:03:00.587Z,15.67
2018-02-17T13:05:28.278Z,14.50
2018-02-17T13:07:56.735Z,16.10
2018-02-17T13:10:24.425Z,18.93
2018-02-17T13:13:05.062Z,15.07
2018-02-17T13:15:33.548Z,15.37
2018-02-17T13:18:01.154Z,14.27
2018-02-17T13:20:29.499Z,15.27
2018-02-17T13:22:57.093Z,17.07
2018-02-17T13:25:24.668Z,15.93
2018-02-17T13:27:52.282Z,15.53
2018-02-17T13:30:19.885Z,15.27
2018-02-17T13:32:53.796Z,16.90
2018-02-17T13:35:21.495Z,16.67
2018-02-17T13:37:49.218Z,13.63
2018-02-17T13:40:16.954Z,14.00
2018-02-17T13:42:44.633Z,16.13
2018-02-17T13:45:12.569Z,14.73
2018-02-17T13:47:40.332Z,16.73
2018-02-17T13:50:08.107Z,17.60
2018-02-17T13:52:35.856Z,15.90
2018-02-17T13:55:03.665Z,24.20
2018-02-17T13:57:31.355Z,24.20
2018-02-17T13:59:59.965Z,16.53
2018-02-17T14:02:27.704Z,20.77
2018-02-17T14:04:55.351Z,20.00
2018-02-17T14:07:23.719Z,27.00
2018-02-17T14:09:51.290Z,19.67
2018-02-17T14:12:19.686Z,23.70
2018-02-17T14:14:47.290Z,17.47
2018-02-17T14:17:15.677Z,17.10
2018-02-17T14:19:43.251Z,20.87
2018-02-17T14:22:10.864Z,21.33
2018-02-17T14:24:38.472Z,19.57
2018-02-17T14:27:19.774Z,27.03
2018-02-17T14:29:47.543Z,23.77
2018-02-17T14:32:15.737Z,25.13
2018-02-17T14:34:43.431Z,21.70
2018-02-17T14:37:11.166Z,18.63
2018-02-17T14:39:38.960Z,18.83
2018-02-17T14:42:06.705Z,19.30
2018-02-17T14:44:34.456Z,21.67
2018-02-17T14:47:03.009Z,22.77
2018-02-17T14:49:30.622Z,20.00
2018-02-17T14:51:59.132Z,18.67
2018-02-17T14:54:26.852Z,20.27
2018-02-17T14:56:55.892Z,18.83
2018-02-17T14:59:25.476Z,21.60
2018-02-17T15:01:54.058Z,22.73
2018-02-17T15:04:21.829Z,22.17
2018-02-17T15:06:49.694Z,24.07
2018-02-17T15:09:18.395Z,21.00
2018-02-17T15:11:46.120Z,20.90
2018-02-17T15:14:14.611Z,22.70
2018-02-17T15:16:42.655Z,34.83
2018-02-17T15:19:10.275Z,25.97
2018-02-17T15:21:37.865Z,66.80
2018-02-17T15:24:06.315Z,50.73
2018-02-17T15:26:33.894Z,33.17
2018-02-17T15:29:01.499Z,31.00
2018-02-17T15:31:29.861Z,32.33
2018-02-17T15:33:57.437Z,43.47
2018-02-17T15:36:25.038Z,36.23
2018-02-17T15:41:49.775Z,32.10
2018-02-17T15:44:18.267Z,37.73
2018-02-17T15:46:45.900Z,35.10
2018-02-17T15:49:13.543Z,34.23
2018-02-17T15:51:41.942Z,32.17
2018-02-17T15:54:09.609Z,28.30
2018-02-17T15:56:37.254Z,27.63
2018-02-17T15:59:05.664Z,30.63
2018-02-17T16:01:33.284Z,29.13
2018-02-17T16:04:01.105Z,25.97
2018-02-17T16:06:28.857Z,27.87
2018-02-17T16:08:56.791Z,25.97
2018-02-17T16:11:39.260Z,26.20
2018-02-17T16:14:06.886Z,30.03
2018-02-17T16:16:35.359Z,25.63
2018-02-17T16:19:02.943Z,23.10
2018-02-17T16:21:30.546Z,32.10
2018-02-17T16:23:58.118Z,26.33
2018-02-17T16:26:25.719Z,29.13
2018-02-17T16:28:53.327Z,26.40
2018-02-17T16:31:20.963Z,28.50
2018-02-17T16:33:48.670Z,30.00
2018-02-17T16:36:16.251Z,30.17
2018-02-17T16:38:44.678Z,31.90
2018-02-17T16:41:12.249Z,27.87
2018-02-17T16:43:39.858Z,25.47
2018-02-17T16:46:08.203Z,27.47
2018-02-17T16:48:35.807Z,28.50
2018-02-17T16:51:03.396Z,33.53
2018-02-17T16:53:30.998Z,35.33
2018-02-17T16:59:12.491Z,27.97
2018-02-17T17:01:40.062Z,26.47
2018-02-17T17:04:07.716Z,27.70
2018-02-17T17:06:35.318Z,26.93
2018-02-17T17:09:02.926Z,29.50
2018-02-17T17:11:30.548Z,24.70
2018-02-17T17:13:58.898Z,28.90
2018-02-17T17:16:26.510Z,25.67
2018-02-17T17:18:54.082Z,24.90
2018-02-17T17:21:21.686Z,29.20
2018-02-17T17:23:49.291Z,30.33
2018-02-17T17:26:16.906Z,29.63
2018-02-17T17:28:44.501Z,33.27
2018-02-17T17:31:12.075Z,30.63
2018-02-17T17:33:39.682Z,26.47
2018-02-17T17:36:07.255Z,29.77
2018-02-17T17:38:34.855Z,29.40
2018-02-17T17:41:02.478Z,28.87
2018-02-17T17:43:30.059Z,24.47
2018-02-17T17:45:57.739Z,23.67
2018-02-17T17:48:25.315Z,25.60
2018-02-17T17:50:53.150Z,33.13
2018-02-17T17:53:21.487Z,31.97
2018-02-17T17:55:49.090Z,29.43
2018-02-17T17:58:16.696Z,27.87
2018-02-17T18:00:44.292Z,26.90
2018-02-17T18:03:11.966Z,26.77
2018-02-17T18:05:39.511Z,30.53
2018-02-17T18:08:07.111Z,30.10
2018-02-17T18:10:34.689Z,32.03
2018-02-17T18:13:02.359Z,29.47
2018-02-17T18:15:29.979Z,32.97
2018-02-17T18:17:57.586Z,28.33
2018-02-17T18:20:25.162Z,26.33
2018-02-17T18:22:52.975Z,28.83
2018-02-17T18:25:21.406Z,28.87
2018-02-17T18:27:49.025Z,30.93
2018-02-17T18:30:17.415Z,27.57
2018-02-17T18:32:45.010Z,32.20
2018-02-17T18:35:14.551Z,32.17
2018-02-17T18:37:42.122Z,35.53
2018-02-17T18:40:09.723Z,35.83
2018-02-17T18:42:37.298Z,40.80
2018-02-17T18:45:04.899Z,29.80
2018-02-17T18:47:32.509Z,32.47
2018-02-17T18:50:00.090Z,33.57
2018-02-17T18:52:27.706Z,31.27
2018-02-17T18:54:55.287Z,35.97
2018-02-17T18:57:22.887Z,35.03
2018-02-17T18:59:50.463Z,35.07
2018-02-17T19:02:18.087Z,28.83
2018-02-17T19:04:45.707Z,32.30
2018-02-17T19:07:13.288Z,31.77
2018-02-17T19:09:40.946Z,32.60
2018-02-17T19:12:08.587Z,29.70
2018-02-17T19:14:36.255Z,28.97
2018-02-17T19:17:03.900Z,26.47
2018-02-17T19:19:31.553Z,30.37
2018-02-17T19:21:59.159Z,27.57
2018-02-17T19:24:27.601Z,30.97
2018-02-17T19:26:55.285Z,29.50
2018-02-17T19:29:22.915Z,27.00
2018-02-17T19:31:50.575Z,24.87
2018-02-17T19:34:18.232Z,30.43
2018-02-17T19:36:45.883Z,28.10
2018-02-17T19:39:13.533Z,30.23
2018-02-17T19:41:41.426Z,30.50
2018-02-17T19:44:09.026Z,42.47
2018-02-17T19:46:36.601Z,39.67
2018-02-17T19:49:04.202Z,41.23
2018-02-17T19:51:31.806Z,42.63
2018-02-17T19:53:59.383Z,33.63
2018-02-17T19:56:27.014Z,32.30
2018-02-17T19:58:55.358Z,33.20
2018-02-17T20:01:22.960Z,31.43
2018-02-17T20:03:51.330Z,28.50
2018-02-17T20:06:18.912Z,28.93
2018-02-17T20:08:46.518Z,42.90
2018-02-17T20:11:14.092Z,29.10
2018-02-17T20:13:41.704Z,31.73
2018-02-17T20:16:09.310Z,31.50
2018-02-17T20:18:36.963Z,28.60
2018-02-17T20:21:04.567Z,28.37
2018-02-17T20:23:32.142Z,32.03
2018-02-17T20:25:59.758Z,26.17
2018-02-17T20:28:27.459Z,29.13
2018-02-17T20:30:55.698Z,29.77
2018-02-17T20:33:35.311Z,29.30
2018-02-17T20:36:04.951Z,28.10
2018-02-17T20:38:34.389Z,33.40
2018-02-17T20:41:08.176Z,32.87
2018-02-17T20:43:38.142Z,33.33
2018-02-17T20:46:07.100Z,29.53
2018-02-17T20:48:37.885Z,32.33
2018-02-17T20:51:10.242Z,30.60
2018-02-17T20:53:38.947Z,31.43
2018-02-17T20:56:08.620Z,28.13
2018-02-17T20:58:37.979Z,36.17
2018-02-17T21:01:06.656Z,31.67
2018-02-17T21:03:34.984Z,34.27
2018-02-17T21:06:02.883Z,35.00
2018-02-17T21:08:35.154Z,30.43
2018-02-17T21:11:05.993Z,31.33
2018-02-17T21:13:34.343Z,27.10
2018-02-17T21:16:04.204Z,26.20
2018-02-17T21:18:32.519Z,30.70
2018-02-17T21:21:06.281Z,28.03
2018-02-17T21:23:36.499Z,26.03
2018-02-17T21:26:04.576Z,23.27
2018-02-17T21:28:34.520Z,23.10
2018-02-17T21:31:02.174Z,24.20
2018-02-17T21:33:30.791Z,25.73
2018-02-17T21:36:01.127Z,25.30
2018-02-17T21:38:29.439Z,27.93
2018-02-17T21:40:59.990Z,24.17
2018-02-17T21:43:27.930Z,23.73
2018-02-17T21:45:56.755Z,21.97
2018-02-17T21:48:24.858Z,23.90
2018-02-17T21:50:55.891Z,23.17
2018-02-17T21:53:23.934Z,22.33
2018-02-17T21:55:57.062Z,25.13
2018-02-17T21:58:26.270Z,25.10
2018-02-17T22:00:55.050Z,22.03
2018-02-17T22:03:41.451Z,22.10
2018-02-17T22:06:09.425Z,18.63
2018-02-17T22:08:40.292Z,25.73
2018-02-17T22:11:14.640Z,22.43
2018-02-17T22:13:42.984Z,25.83
2018-02-17T22:16:10.586Z,21.77
2018-02-17T22:18:39.271Z,21.80
2018-02-17T22:21:06.843Z,22.20
2018-02-17T22:23:34.441Z,20.37
2018-02-17T22:26:02.101Z,24.93
2018-02-17T22:28:29.739Z,23.80
2018-02-17T22:30:57.474Z,26.87
2018-02-17T22:33:25.818Z,21.90
2018-02-17T22:36:11.087Z,29.43
2018-02-17T22:38:38.675Z,34.53
2018-02-17T22:41:07.042Z,36.60
2018-02-17T22:43:34.834Z,30.53
2018-02-17T22:46:02.430Z,34.93
2018-02-17T22:48:33.356Z,22.27
2018-02-17T22:51:01.191Z,21.93
2018-02-17T22:53:28.911Z,20.67
2018-02-17T22:55:57.279Z,20.47
2018-02-17T22:58:24.862Z,34.03
2018-02-17T23:00:53.466Z,44.43
2018-02-17T23:03:21.042Z,31.57
2018-02-17T23:05:48.671Z,38.47
2018-02-17T23:08:17.050Z,19.70
2018-02-17T23:10:44.629Z,19.03
2018-02-17T23:13:12.262Z,19.47
2018-02-17T23:15:39.842Z,34.47
2018-02-17T23:18:08.210Z,24.40
2018-02-17T23:20:35.814Z,39.70
2018-02-17T23:23:03.451Z,32.60
2018-02-17T23:25:31.068Z,28.50
2018-02-17T23:27:58.684Z,27.13
2018-02-17T23:30:26.319Z,29.53
2018-02-17T23:32:53.926Z,23.67
2018-02-17T23:35:21.507Z,24.53
2018-02-17T23:37:49.115Z,23.73
2018-02-17T23:40:16.698Z,24.47
2018-02-17T23:42:44.302Z,22.77
2018-02-17T23:45:11.906Z,19.47
2018-02-17T23:47:39.490Z,21.70
2018-02-17T23:50:07.867Z,19.00
2018-02-17T23:52:35.474Z,23.63
2018-02-17T23:55:03.054Z,20.73
2018-02-17T23:57:30.668Z,20.47
2018-02-17T23:59:58.283Z,22.03
